Time;durP1;ratioP1;P1;durP2;ratioP2;P2;SDS_P1;SDS_P2;PMS_P1;PMS_P2;Temp;Humidity;BMP_temperature;BMP_pressure;BME280_temperature;BME280_humidity;BME280_pressure;Samples;Min_cycle;Max_cycle;Signal;HPM_P1;HPM_P2
2023/08/26 00:00:11;;;;;;;2.58;1.00;;;21.70;57.00;;;;;;5072681;28;20724;-50
2023/08/26 00:02:39;;;;;;;2.13;0.75;;;21.80;57.10;;;;;;5072363;28;20660;-54
2023/08/26 00:05:07;;;;;;;2.47;1.10;;;21.70;57.00;;;;;;5072835;28;20229;-52
2023/08/26 00:07:33;;;;;;;4.57;1.30;;;21.70;57.00;;;;;;5072947;28;20197;-54
2023/08/26 00:10:00;;;;;;;2.40;1.00;;;21.70;57.00;;;;;;5072228;28;20703;-57
2023/08/26 00:12:27;;;;;;;2.13;0.90;;;21.70;57.00;;;;;;5072827;28;20194;-54
2023/08/26 00:14:54;;;;;;;2.72;1.05;;;21.70;57.00;;;;;;5072369;28;20711;-52
2023/08/26 00:17:21;;;;;;;3.63;1.17;;;21.70;57.00;;;;;;5072017;28;20309;-53
2023/08/26 00:19:50;;;;;;;3.03;0.93;;;21.70;57.10;;;;;;5072111;28;20726;-54
2023/08/26 00:22:17;;;;;;;2.25;1.02;;;21.70;57.00;;;;;;5072413;28;20194;-54
2023/08/26 00:24:44;;;;;;;2.80;1.08;;;21.70;57.10;;;;;;5071960;28;20222;-54
2023/08/26 00:27:11;;;;;;;3.50;1.00;;;21.70;57.10;;;;;;5072740;28;20282;-54
2023/08/26 00:29:38;;;;;;;2.72;0.90;;;21.70;57.10;;;;;;5072127;28;20718;-57
2023/08/26 00:32:05;;;;;;;1.05;0.70;;;21.70;57.10;;;;;;5072160;28;20195;-51
2023/08/26 00:34:32;;;;;;;2.75;0.93;;;21.70;57.10;;;;;;5072412;28;20224;-56
2023/08/26 00:37:00;;;;;;;5.38;0.90;;;21.70;57.10;;;;;;5072442;28;20218;-52
2023/08/26 00:39:27;;;;;;;2.72;1.10;;;21.70;57.10;;;;;;5071967;28;20225;-53
2023/08/26 00:41:54;;;;;;;3.15;0.98;;;21.70;57.10;;;;;;5072179;28;20183;-54
2023/08/26 00:44:22;;;;;;;1.88;0.90;;;21.70;57.10;;;;;;5072284;28;20183;-55
2023/08/26 00:46:49;;;;;;;2.45;0.90;;;21.70;57.10;;;;;;5071875;28;20192;-55
2023/08/26 00:49:18;;;;;;;1.40;0.90;;;21.70;57.10;;;;;;5072025;28;20282;-56
2023/08/26 00:51:45;;;;;;;2.55;1.08;;;21.70;57.10;;;;;;5071957;28;20282;-57
2023/08/26 00:54:13;;;;;;;2.67;0.90;;;21.70;57.10;;;;;;5071514;28;20748;-53
2023/08/26 00:56:40;;;;;;;2.75;1.08;;;21.70;57.10;;;;;;5071957;28;20719;-57
2023/08/26 00:59:07;;;;;;;2.38;0.88;;;21.70;57.20;;;;;;5072627;28;20281;-57
2023/08/26 01:01:35;;;;;;;2.90;0.82;;;21.70;57.20;;;;;;5071556;28;20641;-56
2023/08/26 01:04:02;;;;;;;3.83;1.02;;;21.70;57.20;;;;;;5072198;28;20644;-57
2023/08/26 01:06:29;;;;;;;3.65;0.90;;;21.70;57.20;;;;;;5071985;28;20221;-55
2023/08/26 01:08:56;;;;;;;2.70;1.00;;;21.70;57.20;;;;;;5071531;28;20201;-54
2023/08/26 01:11:31;;;;;;;4.35;1.00;;;21.70;57.30;;;;;;5072263;28;20307;-55
2023/08/26 01:14:08;;;;;;;1.50;0.88;;;21.60;57.20;;;;;;5072155;28;20279;-57
2023/08/26 01:16:35;;;;;;;5.13;0.98;;;21.60;57.20;;;;;;5071600;28;20218;-53
2023/08/26 01:19:03;;;;;;;2.50;0.68;;;21.70;57.40;;;;;;5071774;28;20728;-58
2023/08/26 01:21:37;;;;;;;3.03;0.90;;;21.60;57.30;;;;;;5071581;28;20305;-56
2023/08/26 01:24:07;;;;;;;2.60;1.10;;;21.60;57.30;;;;;;5071660;28;20191;-57
2023/08/26 01:26:34;;;;;;;2.63;0.98;;;21.70;57.40;;;;;;5071481;28;20564;-53
2023/08/26 01:29:01;;;;;;;2.92;0.88;;;21.60;57.30;;;;;;5072045;28;20187;-54
2023/08/26 01:31:31;;;;;;;1.73;0.90;;;21.60;57.30;;;;;;5071269;28;20744;-55
2023/08/26 01:34:07;;;;;;;1.25;0.80;;;21.60;57.30;;;;;;5071919;28;20269;-54
2023/08/26 01:36:38;;;;;;;2.70;0.90;;;21.70;57.40;;;;;;5071789;28;20226;-57
2023/08/26 01:39:07;;;;;;;3.70;0.90;;;21.60;57.40;;;;;;5071198;28;20724;-57
2023/08/26 01:41:35;;;;;;;2.88;1.10;;;21.60;57.40;;;;;;5071830;28;20198;-58
2023/08/26 01:44:02;;;;;;;2.60;0.90;;;21.60;57.40;;;;;;5071532;28;20652;-58
2023/08/26 01:46:36;;;;;;;2.17;0.80;;;21.60;57.40;;;;;;5071413;28;20306;-56
2023/08/26 01:49:03;;;;;;;2.40;0.80;;;21.60;57.40;;;;;;5071806;28;20187;-55
2023/08/26 01:51:30;;;;;;;2.50;0.75;;;21.70;57.50;;;;;;5071344;28;20734;-56
2023/08/26 01:53:57;;;;;;;3.50;0.80;;;21.60;57.40;;;;;;5070807;28;20293;-56
2023/08/26 01:56:26;;;;;;;1.98;1.00;;;21.60;57.40;;;;;;5071342;28;20242;-58
2023/08/26 01:58:52;;;;;;;1.65;0.70;;;21.60;57.40;;;;;;5072869;28;20203;-58
2023/08/26 02:01:19;;;;;;;1.95;1.02;;;21.60;57.40;;;;;;5072764;28;20226;-58
2023/08/26 02:03:46;;;;;;;3.00;0.98;;;21.60;57.40;;;;;;5064124;28;20203;-56
2023/08/26 02:06:13;;;;;;;1.88;0.60;;;21.60;57.40;;;;;;5064836;28;20226;-57
2023/08/26 02:08:40;;;;;;;2.05;0.82;;;21.60;57.40;;;;;;5074852;28;20619;-55
2023/08/26 02:11:07;;;;;;;2.10;0.90;;;21.50;57.40;;;;;;5060106;28;20261;-53
2023/08/26 02:13:35;;;;;;;2.65;0.65;;;21.60;57.40;;;;;;5054895;28;20191;-57
2023/08/26 02:16:02;;;;;;;2.47;0.90;;;21.60;57.40;;;;;;5054688;28;20327;-53
2023/08/26 02:18:29;;;;;;;2.38;1.00;;;21.60;57.50;;;;;;5054781;28;20724;-57
2023/08/26 02:20:56;;;;;;;1.73;1.00;;;21.50;57.40;;;;;;5054723;28;20243;-55
2023/08/26 02:23:23;;;;;;;1.38;0.90;;;21.60;57.40;;;;;;5054346;28;20654;-54
2023/08/26 02:25:50;;;;;;;2.63;0.80;;;21.60;57.40;;;;;;5054225;28;20310;-55
2023/08/26 02:28:17;;;;;;;1.35;0.80;;;21.60;57.40;;;;;;5054906;28;20184;-56
2023/08/26 02:30:45;;;;;;;3.35;1.20;;;21.50;57.40;;;;;;5054331;28;20211;-53
2023/08/26 02:33:12;;;;;;;3.75;0.95;;;21.60;57.50;;;;;;5054853;28;20188;-57
2023/08/26 02:35:39;;;;;;;2.63;1.08;;;21.60;57.50;;;;;;5054755;28;20228;-55
2023/08/26 02:38:05;;;;;;;2.40;0.77;;;21.50;57.40;;;;;;5054354;28;20251;-53
2023/08/26 02:40:32;;;;;;;1.70;0.90;;;21.50;57.40;;;;;;5054271;28;20298;-56
2023/08/26 02:42:59;;;;;;;2.85;0.90;;;21.60;57.50;;;;;;5054527;28;20187;-56
2023/08/26 02:45:26;;;;;;;2.05;1.00;;;21.60;57.50;;;;;;5054315;28;20470;-56
2023/08/26 02:47:54;;;;;;;2.47;0.90;;;21.60;58.10;;;;;;5058996;28;20206;-56
2023/08/26 02:50:21;;;;;;;1.40;0.80;;;21.60;57.50;;;;;;5074800;28;20215;-54
2023/08/26 02:52:48;;;;;;;2.00;0.90;;;21.60;57.50;;;;;;5073900;28;20191;-58
2023/08/26 02:55:14;;;;;;;2.67;0.90;;;21.60;57.50;;;;;;5074063;28;20317;-57
2023/08/26 02:57:41;;;;;;;2.20;0.90;;;21.50;57.40;;;;;;5073956;28;20226;-54
2023/08/26 03:00:10;;;;;;;2.05;0.70;;;21.60;57.60;;;;;;5073939;28;20219;-57
2023/08/26 03:02:37;;;;;;;0.98;0.70;;;21.50;57.40;;;;;;5073899;28;20198;-58
2023/08/26 03:05:05;;;;;;;1.35;0.88;;;21.60;57.50;;;;;;5074126;28;20320;-57
2023/08/26 03:07:32;;;;;;;3.53;0.75;;;21.50;57.40;;;;;;5073600;28;20728;-56
2023/08/26 03:09:59;;;;;;;2.35;0.90;;;21.50;57.50;;;;;;5073291;28;20246;-56
2023/08/26 03:12:26;;;;;;;1.70;0.95;;;21.60;57.60;;;;;;5073624;28;20274;-57
2023/08/26 03:14:53;;;;;;;2.38;0.90;;;21.50;57.50;;;;;;5073361;28;20588;-52
2023/08/26 03:17:20;;;;;;;3.72;0.88;;;21.50;57.50;;;;;;5073789;28;20583;-54
2023/08/26 03:19:47;;;;;;;1.20;0.80;;;21.50;57.50;;;;;;5073941;28;20301;-56
2023/08/26 03:22:15;;;;;;;1.50;0.75;;;21.50;57.50;;;;;;5073505;28;20296;-52
2023/08/26 03:24:42;;;;;;;1.58;0.77;;;21.50;57.60;;;;;;5073588;28;20700;-54
2023/08/26 03:27:08;;;;;;;3.53;1.27;;;21.50;57.60;;;;;;5073734;28;20191;-54
2023/08/26 03:29:35;;;;;;;3.33;0.75;;;21.50;57.60;;;;;;5072898;28;20183;-53
2023/08/26 03:32:02;;;;;;;1.75;0.80;;;21.50;57.60;;;;;;5073817;28;20197;-54
2023/08/26 03:34:29;;;;;;;2.10;0.75;;;21.50;57.60;;;;;;5073486;28;20282;-51
2023/08/26 03:36:56;;;;;;;1.60;0.85;;;21.50;57.60;;;;;;5073062;28;20561;-58
2023/08/26 03:39:24;;;;;;;2.40;1.05;;;21.50;57.60;;;;;;5073337;28;20194;-53
2023/08/26 03:41:51;;;;;;;2.33;0.98;;;21.50;57.70;;;;;;5073333;28;20712;-53
2023/08/26 03:44:18;;;;;;;3.35;0.90;;;21.50;57.60;;;;;;5073325;28;20195;-55
2023/08/26 03:46:44;;;;;;;1.95;0.80;;;21.50;57.60;;;;;;5073261;28;20281;-51
2023/08/26 03:49:11;;;;;;;2.28;0.90;;;21.40;57.50;;;;;;5073531;28;20597;-52
2023/08/26 03:51:38;;;;;;;2.08;0.82;;;21.40;57.60;;;;;;5073004;28;20242;-55
2023/08/26 03:54:05;;;;;;;1.42;0.70;;;21.50;57.60;;;;;;5073096;28;20282;-50
2023/08/26 03:56:34;;;;;;;2.03;0.80;;;21.50;57.60;;;;;;5073141;28;20237;-53
2023/08/26 03:59:00;;;;;;;1.98;0.70;;;21.50;57.60;;;;;;5072738;28;20195;-55
2023/08/26 04:01:29;;;;;;;0.95;0.60;;;21.50;57.60;;;;;;5072867;28;20246;-53
2023/08/26 04:03:56;;;;;;;1.67;0.80;;;21.40;57.50;;;;;;5072588;28;20650;-54
2023/08/26 04:06:23;;;;;;;2.78;0.70;;;21.50;57.60;;;;;;5072928;28;20218;-54
2023/08/26 04:08:50;;;;;;;1.70;0.70;;;21.50;57.70;;;;;;5072881;28;20191;-57
2023/08/26 04:11:17;;;;;;;3.00;0.70;;;21.50;57.70;;;;;;5073070;28;20233;-53
2023/08/26 04:13:46;;;;;;;1.77;0.77;;;21.50;57.70;;;;;;5072585;28;20195;-57
2023/08/26 04:16:15;;;;;;;2.38;0.80;;;21.50;57.60;;;;;;5072808;28;20222;-57
2023/08/26 04:18:42;;;;;;;1.48;0.90;;;21.50;57.60;;;;;;5072373;28;20190;-58
2023/08/26 04:21:10;;;;;;;1.17;0.60;;;21.50;57.60;;;;;;5072034;28;20716;-55
2023/08/26 04:23:36;;;;;;;2.63;0.88;;;21.50;57.70;;;;;;5072208;28;20183;-58
2023/08/26 04:26:03;;;;;;;1.92;1.08;;;21.40;57.50;;;;;;5072897;28;20218;-57
2023/08/26 04:28:30;;;;;;;1.23;0.60;;;21.40;57.60;;;;;;5071962;28;20197;-56
2023/08/26 04:31:00;;;;;;;1.52;0.70;;;21.40;57.50;;;;;;5072306;28;20309;-56
2023/08/26 04:33:27;;;;;;;1.85;0.90;;;21.50;57.70;;;;;;5072564;28;20195;-54
2023/08/26 04:35:54;;;;;;;2.42;0.73;;;21.50;57.70;;;;;;5071711;28;20244;-52
2023/08/26 04:38:21;;;;;;;1.70;0.70;;;21.40;57.50;;;;;;5072395;28;20219;-53
2023/08/26 04:40:47;;;;;;;3.13;0.60;;;21.50;57.70;;;;;;5072084;28;20219;-56
2023/08/26 04:43:14;;;;;;;4.22;0.80;;;21.40;57.60;;;;;;5072092;28;20304;-54
2023/08/26 04:45:41;;;;;;;4.50;0.90;;;21.40;57.60;;;;;;5072716;28;20221;-55
2023/08/26 04:48:09;;;;;;;2.35;1.00;;;21.50;57.70;;;;;;5072395;28;20197;-57
2023/08/26 04:50:36;;;;;;;1.38;0.70;;;21.50;57.70;;;;;;5072106;28;20211;-55
2023/08/26 04:53:04;;;;;;;5.63;0.95;;;21.50;57.70;;;;;;5072120;28;20183;-53
2023/08/26 04:55:31;;;;;;;2.72;1.00;;;21.40;57.60;;;;;;5072038;28;20234;-58
2023/08/26 04:57:58;;;;;;;1.55;0.73;;;21.40;57.60;;;;;;5071605;28;20241;-53
2023/08/26 05:00:25;;;;;;;2.63;0.80;;;21.50;57.70;;;;;;5071899;28;20709;-58
2023/08/26 05:02:52;;;;;;;1.55;0.93;;;21.40;57.60;;;;;;5072441;28;20230;-53
2023/08/26 05:05:21;;;;;;;2.53;0.90;;;21.40;57.60;;;;;;5071810;28;20215;-54
2023/08/26 05:07:48;;;;;;;2.67;0.88;;;21.40;57.60;;;;;;5071831;28;20269;-51
2023/08/26 05:10:14;;;;;;;2.63;0.90;;;21.40;57.60;;;;;;5072176;28;20692;-57
2023/08/26 05:12:41;;;;;;;1.63;0.90;;;21.40;57.60;;;;;;5071415;28;20219;-55
2023/08/26 05:15:09;;;;;;;2.17;0.80;;;21.40;57.60;;;;;;5072129;28;20229;-53
2023/08/26 05:17:35;;;;;;;1.55;0.75;;;21.40;57.70;;;;;;5071904;28;20356;-57
2023/08/26 05:20:03;;;;;;;2.08;0.82;;;21.40;57.60;;;;;;5071475;28;20214;-56
2023/08/26 05:22:31;;;;;;;1.77;0.90;;;21.40;57.70;;;;;;5071705;28;20188;-52
2023/08/26 05:24:57;;;;;;;2.25;0.80;;;21.40;57.70;;;;;;5072069;28;20225;-56
2023/08/26 05:27:26;;;;;;;2.53;0.88;;;21.40;57.70;;;;;;5071686;28;20210;-56
2023/08/26 05:29:54;;;;;;;1.73;0.77;;;21.40;57.70;;;;;;5071830;28;20233;-55
2023/08/26 05:32:21;;;;;;;2.85;1.13;;;21.40;57.70;;;;;;5071748;28;20656;-56
2023/08/26 05:34:47;;;;;;;2.67;0.82;;;21.40;57.70;;;;;;5073937;28;20218;-57
2023/08/26 05:37:14;;;;;;;4.22;0.98;;;21.40;57.70;;;;;;5075785;28;20211;-57
2023/08/26 05:39:42;;;;;;;2.47;1.00;;;21.40;57.70;;;;;;5075459;28;20273;-57
2023/08/26 05:42:09;;;;;;;3.40;1.13;;;21.40;57.70;;;;;;5075384;28;20190;-57
2023/08/26 05:44:36;;;;;;;2.00;0.77;;;21.40;57.70;;;;;;5075347;28;20191;-57
2023/08/26 05:47:03;;;;;;;2.70;1.00;;;21.30;57.60;;;;;;5075823;28;20187;-54
2023/08/26 05:49:30;;;;;;;1.50;0.90;;;21.40;57.70;;;;;;5075111;28;20282;-51
2023/08/26 05:51:57;;;;;;;1.38;0.88;;;21.40;57.80;;;;;;5075565;28;20282;-56
2023/08/26 05:54:24;;;;;;;2.72;1.10;;;21.40;57.70;;;;;;5075183;28;20281;-55
2023/08/26 05:56:52;;;;;;;2.95;1.08;;;21.40;57.80;;;;;;5075200;28;20588;-53
2023/08/26 05:59:19;;;;;;;3.60;0.95;;;21.40;57.80;;;;;;5075359;28;20293;-57
2023/08/26 06:01:46;;;;;;;1.10;0.80;;;21.40;57.80;;;;;;5075208;28;20599;-56
2023/08/26 06:04:12;;;;;;;1.02;0.65;;;21.40;57.80;;;;;;5074788;28;20218;-57
2023/08/26 06:06:39;;;;;;;1.45;0.80;;;21.40;57.80;;;;;;5075485;28;20240;-57
2023/08/26 06:09:06;;;;;;;1.70;0.70;;;21.30;57.70;;;;;;5075003;28;20197;-55
2023/08/26 06:11:33;;;;;;;2.25;1.00;;;21.40;57.90;;;;;;5074546;28;20225;-57
2023/08/26 06:14:01;;;;;;;1.70;0.60;;;21.40;57.90;;;;;;5074769;28;20650;-57
2023/08/26 06:16:28;;;;;;;2.20;0.90;;;21.40;57.90;;;;;;5075554;28;20218;-57
2023/08/26 06:18:55;;;;;;;2.33;1.00;;;21.40;57.90;;;;;;5074693;28;20317;-58
2023/08/26 06:21:21;;;;;;;2.88;0.98;;;21.40;57.90;;;;;;5074985;28;20214;-57
2023/08/26 06:23:49;;;;;;;2.78;0.80;;;21.40;57.90;;;;;;5075054;28;20183;-54
2023/08/26 06:26:16;;;;;;;2.63;1.02;;;21.40;57.90;;;;;;5074799;28;20237;-55
2023/08/26 06:28:43;;;;;;;4.20;1.67;;;21.40;57.90;;;;;;5074956;28;20182;-57
2023/08/26 06:31:12;;;;;;;1.52;0.73;;;21.40;57.90;;;;;;5074913;28;20341;-53
2023/08/26 06:33:38;;;;;;;1.05;0.77;;;21.40;57.90;;;;;;5074499;28;20274;-55
2023/08/26 06:36:06;;;;;;;2.10;0.80;;;21.40;57.90;;;;;;5074631;28;20225;-57
2023/08/26 06:38:33;;;;;;;3.65;0.90;;;21.40;58.00;;;;;;5074455;28;20734;-54
2023/08/26 06:41:00;;;;;;;4.10;0.98;;;21.40;58.00;;;;;;5074537;28;20617;-50
2023/08/26 06:43:29;;;;;;;1.52;0.90;;;21.40;58.00;;;;;;5074339;28;20191;-55
2023/08/26 06:45:56;;;;;;;3.53;1.00;;;21.40;57.90;;;;;;5074303;28;20222;-55
2023/08/26 06:48:24;;;;;;;1.35;0.80;;;21.40;57.90;;;;;;5074297;28;20197;-53
2023/08/26 06:50:51;;;;;;;2.95;1.00;;;21.40;58.00;;;;;;5074515;28;20221;-57
2023/08/26 06:53:21;;;;;;;1.13;0.88;;;21.30;57.90;;;;;;5074572;28;20281;-58
2023/08/26 06:55:50;;;;;;;2.95;0.90;;;21.40;58.00;;;;;;5073903;28;20239;-56
2023/08/26 06:58:17;;;;;;;1.13;0.80;;;21.30;57.90;;;;;;5074579;28;20227;-51
2023/08/26 07:00:45;;;;;;;1.65;0.80;;;21.40;58.00;;;;;;5074011;28;20302;-57
2023/08/26 07:03:12;;;;;;;1.10;0.88;;;21.40;58.00;;;;;;5073851;28;20185;-55
2023/08/26 07:05:43;;;;;;;2.10;1.00;;;21.30;57.90;;;;;;5074407;28;20219;-58
2023/08/26 07:08:10;;;;;;;2.85;0.82;;;21.40;58.10;;;;;;5074280;28;20282;-56
2023/08/26 07:10:37;;;;;;;2.05;0.85;;;21.30;57.90;;;;;;5073677;28;20254;-53
2023/08/26 07:13:04;;;;;;;1.30;0.90;;;21.30;58.00;;;;;;5074343;28;20189;-55
2023/08/26 07:15:31;;;;;;;2.10;0.90;;;21.30;58.00;;;;;;5073386;28;20221;-53
2023/08/26 07:17:58;;;;;;;3.00;0.90;;;21.40;58.10;;;;;;5073480;28;20696;-55
2023/08/26 07:20:25;;;;;;;3.25;0.88;;;21.40;58.10;;;;;;5073717;28;20720;-56
2023/08/26 07:22:53;;;;;;;2.42;1.10;;;21.30;58.00;;;;;;5074200;28;20603;-58
2023/08/26 07:25:21;;;;;;;1.83;0.93;;;21.40;58.20;;;;;;5073211;28;20722;-57
2023/08/26 07:27:48;;;;;;;2.95;1.15;;;21.40;58.10;;;;;;5073838;28;20195;-52
2023/08/26 07:30:15;;;;;;;2.50;0.90;;;21.30;58.10;;;;;;5073450;28;20301;-57
2023/08/26 07:32:42;;;;;;;1.08;0.80;;;21.30;58.10;;;;;;5073293;28;20649;-54
2023/08/26 07:35:10;;;;;;;1.10;0.68;;;21.30;58.10;;;;;;5073549;28;20219;-56
2023/08/26 07:37:37;;;;;;;1.77;1.10;;;21.40;58.20;;;;;;5073262;28;20617;-56
2023/08/26 07:40:13;;;;;;;1.17;0.90;;;21.30;58.20;;;;;;5072872;28;20722;-53
2023/08/26 07:42:40;;;;;;;1.75;0.77;;;21.30;58.20;;;;;;5073454;28;20273;-55
2023/08/26 07:45:07;;;;;;;1.77;0.70;;;21.40;58.30;;;;;;5073410;28;20229;-56
2023/08/26 07:47:34;;;;;;;3.70;1.00;;;21.40;58.30;;;;;;5072703;28;20256;-55
2023/08/26 07:50:02;;;;;;;2.95;1.00;;;21.40;58.30;;;;;;5073341;28;20215;-55
2023/08/26 07:52:29;;;;;;;2.17;0.80;;;21.40;58.30;;;;;;5073204;28;20222;-55
2023/08/26 07:54:55;;;;;;;4.35;1.00;;;21.40;58.30;;;;;;5072572;28;20230;-57
2023/08/26 07:57:23;;;;;;;2.28;1.00;;;21.40;58.30;;;;;;5072798;28;20195;-53
2023/08/26 07:59:51;;;;;;;1.00;0.77;;;21.30;58.30;;;;;;5073302;28;20317;-57
2023/08/26 08:02:18;;;;;;;2.28;1.00;;;21.30;58.20;;;;;;5072840;28;20277;-58
2023/08/26 08:04:45;;;;;;;1.73;1.02;;;21.40;58.40;;;;;;5072627;28;20277;-57
2023/08/26 08:07:12;;;;;;;4.38;0.80;;;21.40;58.40;;;;;;5072995;28;20201;-56
2023/08/26 08:09:39;;;;;;;2.00;0.90;;;21.30;58.30;;;;;;5072524;28;20299;-54
2023/08/26 08:12:08;;;;;;;2.10;0.90;;;21.40;58.50;;;;;;5072963;28;20273;-56
2023/08/26 08:14:36;;;;;;;1.60;0.88;;;21.40;58.50;;;;;;5072976;28;20320;-52
2023/08/26 08:17:04;;;;;;;1.33;0.70;;;21.30;58.40;;;;;;5072169;28;20187;-55
2023/08/26 08:19:31;;;;;;;3.55;1.30;;;21.30;58.50;;;;;;5072455;28;20225;-53
2023/08/26 08:21:57;;;;;;;2.60;0.80;;;21.40;58.50;;;;;;5072993;28;20215;-55
2023/08/26 08:24:24;;;;;;;1.48;0.85;;;21.40;58.50;;;;;;5072321;28;20195;-54
2023/08/26 08:26:51;;;;;;;2.35;1.02;;;21.40;58.50;;;;;;5072893;28;20240;-56
2023/08/26 08:29:18;;;;;;;2.60;1.10;;;21.40;58.60;;;;;;5072384;28;20674;-56
2023/08/26 08:31:46;;;;;;;2.55;1.00;;;21.40;58.60;;;;;;5072218;28;20660;-56
2023/08/26 08:34:13;;;;;;;1.30;0.98;;;21.30;58.50;;;;;;5072539;28;20206;-57
2023/08/26 08:36:40;;;;;;;2.08;1.15;;;21.40;58.60;;;;;;5073131;28;20223;-56
2023/08/26 08:39:07;;;;;;;2.38;0.95;;;21.40;58.60;;;;;;5071807;28;20779;-58
2023/08/26 08:41:36;;;;;;;1.45;0.90;;;21.40;58.60;;;;;;5072531;28;20241;-57
2023/08/26 08:44:09;;;;;;;1.73;0.90;;;21.40;58.60;;;;;;5072384;28;20187;-59
2023/08/26 08:46:36;;;;;;;3.10;0.95;;;21.40;58.60;;;;;;5072196;28;20317;-57
2023/08/26 08:49:05;;;;;;;0.80;0.70;;;21.40;58.60;;;;;;5072421;28;20189;-56
2023/08/26 08:51:32;;;;;;;1.58;0.88;;;21.40;58.60;;;;;;5071911;28;20317;-55
2023/08/26 08:54:02;;;;;;;2.03;1.00;;;21.40;58.60;;;;;;5071771;28;20193;-57
2023/08/26 08:56:32;;;;;;;2.42;1.02;;;21.40;58.70;;;;;;5071933;28;20312;-56
2023/08/26 08:59:00;;;;;;;2.63;1.00;;;21.30;58.50;;;;;;5072483;28;20230;-56
2023/08/26 09:01:28;;;;;;;1.08;0.90;;;21.40;58.70;;;;;;5071891;28;20219;-57
2023/08/26 09:03:55;;;;;;;2.20;1.10;;;21.40;58.60;;;;;;5072255;28;20197;-54
2023/08/26 09:06:23;;;;;;;1.52;0.80;;;21.30;58.60;;;;;;5072391;28;20229;-56
2023/08/26 09:08:51;;;;;;;1.90;1.00;;;21.40;58.70;;;;;;5074264;28;20665;-57
2023/08/26 09:11:18;;;;;;;1.48;0.90;;;21.40;58.70;;;;;;5076842;28;20237;-53
2023/08/26 09:13:45;;;;;;;2.35;0.93;;;21.40;58.70;;;;;;5076229;28;20191;-57
2023/08/26 09:16:12;;;;;;;2.47;0.93;;;21.40;58.70;;;;;;5076006;28;20574;-57
2023/08/26 09:18:40;;;;;;;2.35;1.05;;;21.40;58.60;;;;;;5075907;28;20569;-55
2023/08/26 09:21:13;;;;;;;1.00;0.85;;;21.40;59.30;;;;;;5076362;28;20225;-57
2023/08/26 09:23:45;;;;;;;1.30;0.75;;;21.40;58.70;;;;;;5075491;28;20194;-56
2023/08/26 09:26:12;;;;;;;1.38;1.00;;;21.40;58.70;;;;;;5076741;28;20248;-55
2023/08/26 09:28:46;;;;;;;1.63;0.95;;;21.40;58.70;;;;;;5076110;28;20281;-56
2023/08/26 09:31:14;;;;;;;3.13;1.17;;;21.40;58.70;;;;;;5075623;28;20214;-58
2023/08/26 09:33:40;;;;;;;2.35;0.80;;;21.30;58.60;;;;;;5075635;28;20562;-57
2023/08/26 09:36:07;;;;;;;2.85;1.08;;;21.40;58.70;;;;;;5076018;28;20221;-56
2023/08/26 09:38:44;;;;;;;4.75;1.05;;;21.40;58.70;;;;;;5075221;28;20215;-54
2023/08/26 09:41:12;;;;;;;2.10;0.90;;;21.30;58.70;;;;;;5075740;28;20214;-57
2023/08/26 09:43:42;;;;;;;2.85;1.00;;;21.40;58.70;;;;;;5075460;28;20253;-57
2023/08/26 09:46:09;;;;;;;1.85;1.00;;;21.40;58.70;;;;;;5075154;28;20261;-57
2023/08/26 09:48:36;;;;;;;3.05;0.80;;;21.40;58.70;;;;;;5075675;28;20194;-55
2023/08/26 09:51:07;;;;;;;1.88;1.08;;;21.40;58.80;;;;;;5075817;28;20698;-53
2023/08/26 09:53:34;;;;;;;3.72;1.20;;;21.40;58.80;;;;;;5075183;28;20198;-57
2023/08/26 09:56:02;;;;;;;3.38;1.00;;;21.40;58.70;;;;;;5074933;28;20684;-58
2023/08/26 09:58:30;;;;;;;1.50;0.80;;;21.40;58.70;;;;;;5075592;28;20222;-53
2023/08/26 10:00:58;;;;;;;1.58;0.80;;;21.30;58.70;;;;;;5075214;28;20215;-57
2023/08/26 10:03:26;;;;;;;1.27;0.80;;;21.30;58.70;;;;;;5075259;28;20187;-56
2023/08/26 10:05:55;;;;;;;1.38;0.75;;;21.40;58.80;;;;;;5075047;28;20571;-56
2023/08/26 10:08:29;;;;;;;1.70;1.00;;;21.40;58.70;;;;;;5075060;28;20191;-54
2023/08/26 10:10:56;;;;;;;4.60;0.95;;;21.40;59.40;;;;;;5075334;28;20297;-56
2023/08/26 10:13:26;;;;;;;0.95;0.70;;;21.40;58.70;;;;;;5075025;28;20563;-55
2023/08/26 10:15:58;;;;;;;3.83;1.10;;;21.40;58.70;;;;;;5074582;28;20225;-56
2023/08/26 10:18:33;;;;;;;2.17;0.90;;;21.40;58.70;;;;;;5075066;28;20273;-53
2023/08/26 10:21:02;;;;;;;4.60;0.98;;;21.40;58.70;;;;;;5074484;28;20220;-56
2023/08/26 10:23:30;;;;;;;3.30;0.90;;;21.30;58.70;;;;;;5074665;28;20226;-55
2023/08/26 10:25:57;;;;;;;1.83;0.90;;;21.40;58.80;;;;;;5075047;28;20218;-55
2023/08/26 10:28:25;;;;;;;2.83;0.95;;;21.40;58.70;;;;;;5074642;28;20278;-54
2023/08/26 10:30:54;;;;;;;1.92;1.05;;;21.40;58.80;;;;;;5074132;28;20739;-55
2023/08/26 10:33:21;;;;;;;0.88;0.80;;;21.40;58.80;;;;;;5074522;28;20571;-55
2023/08/26 10:36:13;;;;;;;2.25;1.02;;;21.40;58.80;;;;;;5074566;28;20242;-54
2023/08/26 10:38:40;;;;;;;1.77;0.85;;;21.30;58.70;;;;;;5074339;28;20692;-53
2023/08/26 10:41:11;;;;;;;3.58;1.10;;;21.40;58.80;;;;;;5074706;28;20233;-57
2023/08/26 10:43:38;;;;;;;1.55;1.00;;;21.40;58.80;;;;;;5074366;28;20195;-56
2023/08/26 10:46:06;;;;;;;1.45;1.00;;;21.40;58.80;;;;;;5074279;28;20215;-57
2023/08/26 10:48:57;;;;;;;4.18;0.90;;;21.40;58.80;;;;;;5074627;28;20194;-55
2023/08/26 10:51:24;;;;;;;2.92;1.10;;;21.40;58.90;;;;;;5074504;28;20236;-55
2023/08/26 10:53:51;;;;;;;3.05;1.17;;;21.30;58.70;;;;;;5074220;28;20194;-53
2023/08/26 10:56:21;;;;;;;1.13;0.82;;;21.30;58.70;;;;;;5074427;28;20596;-57
2023/08/26 10:58:49;;;;;;;3.28;1.33;;;21.40;58.90;;;;;;5074654;28;20280;-56
2023/08/26 11:01:18;;;;;;;5.57;1.30;;;21.40;58.80;;;;;;5073708;28;20577;-54
2023/08/26 11:03:46;;;;;;;3.65;1.20;;;21.40;58.80;;;;;;5074391;28;20660;-55
2023/08/26 11:06:19;;;;;;;2.33;1.10;;;21.40;58.80;;;;;;5074373;28;20226;-54
2023/08/26 11:08:54;;;;;;;3.33;0.95;;;21.40;58.80;;;;;;5073812;28;20296;-57
2023/08/26 11:11:21;;;;;;;2.95;1.00;;;21.30;58.80;;;;;;5074251;28;20221;-56
2023/08/26 11:13:48;;;;;;;1.88;1.15;;;21.40;58.80;;;;;;5074030;28;20282;-56
2023/08/26 11:16:17;;;;;;;2.40;1.10;;;21.40;58.80;;;;;;5073919;28;20298;-58
2023/08/26 11:18:44;;;;;;;2.80;1.10;;;21.40;58.80;;;;;;5073886;28;20274;-54
2023/08/26 11:21:13;;;;;;;4.47;1.48;;;21.40;58.80;;;;;;5073661;28;20783;-56
2023/08/26 11:23:41;;;;;;;2.88;1.20;;;21.40;59.50;;;;;;5073489;28;20278;-56
2023/08/26 11:26:08;;;;;;;3.33;1.30;;;21.30;58.80;;;;;;5073733;28;20593;-52
2023/08/26 11:28:35;;;;;;;2.25;1.27;;;21.40;58.90;;;;;;5073367;28;20676;-54
2023/08/26 11:31:03;;;;;;;1.88;0.90;;;21.40;58.90;;;;;;5072620;28;20223;-55
2023/08/26 11:33:31;;;;;;;2.30;1.10;;;21.40;58.90;;;;;;5073077;28;20194;-57
2023/08/26 11:35:59;;;;;;;2.17;1.45;;;21.40;58.90;;;;;;5073579;28;20215;-56
2023/08/26 11:38:26;;;;;;;2.20;1.05;;;21.40;58.90;;;;;;5073058;28;20569;-55
2023/08/26 11:40:52;;;;;;;3.08;1.30;;;21.40;58.90;;;;;;5073506;28;20325;-56
2023/08/26 11:43:19;;;;;;;2.60;1.25;;;21.40;58.90;;;;;;5073458;28;20628;-56
2023/08/26 11:45:47;;;;;;;4.60;1.02;;;21.40;58.90;;;;;;5073224;28;20221;-53
2023/08/26 11:48:15;;;;;;;2.85;1.27;;;21.40;58.90;;;;;;5073114;28;20191;-55
2023/08/26 11:50:45;;;;;;;1.88;0.70;;;21.40;58.90;;;;;;5073395;28;20225;-56
2023/08/26 11:53:12;;;;;;;4.72;1.58;;;21.40;58.90;;;;;;5072541;28;20191;-52
2023/08/26 11:55:40;;;;;;;1.77;1.08;;;21.40;58.90;;;;;;5073307;28;20239;-54
2023/08/26 11:58:07;;;;;;;2.00;1.10;;;21.40;59.00;;;;;;5073531;28;20218;-55
2023/08/26 12:00:34;;;;;;;4.32;1.45;;;21.40;59.00;;;;;;5072796;28;20241;-53
2023/08/26 12:03:03;;;;;;;1.95;1.20;;;21.40;59.00;;;;;;5072987;28;20282;-56
2023/08/26 12:05:43;;;;;;;3.85;1.27;;;21.40;59.00;;;;;;5072870;28;20214;-54
2023/08/26 12:08:15;;;;;;;3.85;1.42;;;21.30;58.90;;;;;;5072621;28;20190;-55
2023/08/26 12:10:42;;;;;;;3.97;1.27;;;21.40;59.00;;;;;;5072909;28;20217;-56
2023/08/26 12:13:09;;;;;;;5.45;1.38;;;21.30;58.90;;;;;;5072858;28;20191;-57
2023/08/26 12:15:39;;;;;;;2.03;1.10;;;21.30;58.90;;;;;;5073088;28;20268;-56
2023/08/26 12:18:06;;;;;;;4.90;1.45;;;21.30;59.00;;;;;;5072837;28;20187;-55
2023/08/26 12:20:33;;;;;;;4.38;1.52;;;21.40;59.00;;;;;;5072758;28;20317;-57
2023/08/26 12:23:02;;;;;;;3.53;1.35;;;21.40;59.00;;;;;;5072230;28;20631;-52
2023/08/26 12:25:31;;;;;;;4.32;1.40;;;21.30;59.00;;;;;;5072745;28;20233;-57
2023/08/26 12:28:06;;;;;;;3.53;1.38;;;21.40;59.10;;;;;;5072747;28;20194;-55
2023/08/26 12:30:33;;;;;;;3.08;1.25;;;21.40;59.10;;;;;;5072532;28;20273;-54
2023/08/26 12:33:00;;;;;;;3.92;1.40;;;21.30;59.00;;;;;;5072583;28;20191;-56
2023/08/26 12:35:26;;;;;;;3.83;1.30;;;21.40;59.10;;;;;;5072669;28;20309;-57
2023/08/26 12:37:53;;;;;;;3.13;0.98;;;21.40;59.10;;;;;;5072223;28;20183;-57
2023/08/26 12:40:21;;;;;;;3.45;1.05;;;21.30;59.00;;;;;;5072367;28;20237;-53
2023/08/26 12:42:48;;;;;;;2.90;1.25;;;21.40;59.10;;;;;;5072254;28;20189;-56
2023/08/26 12:45:15;;;;;;;2.90;1.30;;;21.40;59.10;;;;;;5072338;28;20215;-56
2023/08/26 12:47:42;;;;;;;3.22;1.10;;;21.40;59.00;;;;;;5072497;28;20278;-57
2023/08/26 12:50:09;;;;;;;4.68;1.70;;;21.30;59.00;;;;;;5072301;28;20183;-57